Flight Track Log - Related Links

Times and Time Zones

All times are in EDT time to prevent confusion due to time zone crossing. See the SKW4551 flight status page for this flight to view local times or setup timezone preferences in your user account.

Time Position Orientation Groundspeed Altitude Reporting Facility
EDT Latitude Longitude Course Direction KTS MPH feet Rate Location/Type
Tue 09:13:43 AM 44.2658 -121.0797 113° Southeast 193 222 5,000  Level Seattle Center
Tue 09:14:44 AM 44.2644 -120.9950 91° East 216 249 6,800 2,182 Climbing Seattle Center
Tue 09:15:44 AM 44.2475 -120.8928 103° East 262 302 9,400 2,529 Climbing Seattle Center
Tue 09:16:00 AM 44.1001 -120.6713 113° Southeast  Level Estimated
Tue 09:16:45 AM 44.2272 -120.7892 105° East 274 315 11,900  Level Seattle Center
Tue 09:17:00 AM 44.0671 -120.5361 109° East  Level FlightAware Approximate
Tue 09:17:46 AM 44.2042 -120.6761 106° East 300 345 13,700  Level Seattle Center
Tue 09:18:00 AM 44.0245 -120.4064 113° Southeast  Level Estimated
Tue 09:18:46 AM 44.1789 -120.5503 106° East 331 381 15,200  Level Seattle Center
Tue 09:19:47 AM 44.1514 -120.4183 106° East 351 404 16,800 1,537 Climbing Seattle Center
Tue 09:20:47 AM 44.1275 -120.2997 106° East 363 418 18,300 1,488 Climbing Seattle Center
Tue 09:21:48 AM 44.0992 -120.1608 106° East 374 430 19,800 1,388 Climbing Seattle Center
Tue 09:22:48 AM 44.0692 -120.0197 106° East 384 442 21,100 1,240 Climbing Seattle Center
Tue 09:23:49 AM 44.0394 -119.8772 106° East 386 444 22,300 1,279 Climbing Seattle Center
Tue 09:24:50 AM 44.0028 -119.7019 106° East 397 457 23,700 1,289 Climbing Seattle Center
Tue 09:25:50 AM 43.9722 -119.5575 106° East 394 453 24,900 1,091 Climbing Seattle Center
Tue 09:26:51 AM 43.9411 -119.4122 107° East 396 456 25,900 984 Climbing Seattle Center
Tue 09:27:52 AM 43.9094 -119.2650 107° East 400 460 26,900 893 Climbing Seattle Center
Tue 09:28:52 AM 43.8769 -119.1164 107° East 407 468 27,700 893 Climbing Seattle Center
Tue 09:29:53 AM 43.8453 -118.9703 107° East 401 461 28,700 1,056 Climbing Seattle Center
Tue 09:30:57 AM 43.8125 -118.8239 107° East 401 461 29,900 1,008 Climbing Salt Lake Center
Tue 09:31:58 AM 43.7803 -118.6803 107° East 394 453 30,800 836 Climbing Salt Lake Center
Tue 09:32:59 AM 43.7478 -118.5378 107° East 392 451 31,600 738 Climbing Salt Lake Center
Tue 09:34:00 AM 43.7164 -118.3950 107° East 389 448 32,300 689 Climbing Salt Lake Center
Tue 09:35:01 AM 43.6744 -118.2183 108° East 396 456 33,000 344 Climbing Salt Lake Center
Tue 09:36:02 AM 43.6411 -118.0792 108° East 400 460 33,000  Level Salt Lake Center
Tue 09:37:04 AM 43.6094 -117.9369 107° East 406 467 33,000  Level Salt Lake Center
Tue 09:38:05 AM 43.5686 -117.7653 108° East 420 483 33,000  Level Salt Lake Center
Tue 09:39:06 AM 43.5361 -117.6203 107° East 416 479 33,000  Level Salt Lake Center
Tue 09:40:07 AM 43.5014 -117.4742 108° East 419 482 33,000  Level Salt Lake Center
Tue 09:41:08 AM 43.4617 -117.3028 108° East 420 483 33,000  Level Salt Lake Center
Tue 09:42:10 AM 43.4261 -117.1569 109° East 420 483 33,000  Level Salt Lake Center
Tue 09:43:11 AM 43.3858 -116.9864 108° East 421 484 33,000  Level Salt Lake Center
Tue 09:44:12 AM 43.3500 -116.8406 109° East 422 486 33,000  Level Salt Lake Center
Tue 09:45:14 AM 43.3136 -116.6936 109° East 425 489 33,000  Level Salt Lake Center
Tue 09:46:15 AM 43.2722 -116.5219 108° East 426 490 33,000  Level Salt Lake Center
Tue 09:47:16 AM 43.2358 -116.3744 109° East 427 491 33,000  Level Salt Lake Center
Tue 09:48:18 AM 43.1931 -116.2033 109° East 427 491 33,000  Level Salt Lake Center
Tue 09:49:19 AM 43.1569 -116.0575 109° East 424 488 33,000  Level Salt Lake Center
Tue 09:50:20 AM 43.1203 -115.9114 109° East 424 488 33,000  Level Salt Lake Center
Tue 09:51:22 AM 43.0772 -115.7411 109° East 426 490 33,000  Level Salt Lake Center
Tue 09:52:23 AM 43.0397 -115.5969 110° East 422 486 33,000  Level Salt Lake Center
Tue 09:53:24 AM 42.9969 -115.4275 109° East 423 487 33,000  Level Salt Lake Center
Tue 09:54:26 AM 42.9600 -115.2850 109° East 417 480 33,000  Level Salt Lake Center
Tue 09:55:27 AM 42.9164 -115.1175 110° East 419 482 33,000  Level Salt Lake Center
Tue 09:56:28 AM 42.8794 -114.9758 110° East 416 479 33,000  Level Salt Lake Center
Tue 09:57:30 AM 42.8419 -114.8353 110° East 414 476 33,000 -244 Level Salt Lake Center
Tue 09:58:31 AM 42.7875 -114.6767 115° Southeast 416 479 32,500 -634 Descending Salt Lake Center
Tue 09:59:33 AM 42.7283 -114.5344 119° Southeast 425 489 31,700 -732 Descending Salt Lake Center
Tue 10:00:34 AM 42.6708 -114.3950 119° Southeast 425 489 31,000 -732 Descending Salt Lake Center
Tue 10:01:36 AM 42.6125 -114.2550 119° Southeast 427 491 30,200 -780 Descending Salt Lake Center
Tue 10:02:37 AM 42.5544 -114.1150 119° Southeast 428 493 29,400 -585 Descending Salt Lake Center
Tue 10:03:39 AM 42.4956 -113.9736 119° Southeast 430 495 29,000 -195 Descending Salt Lake Center
Tue 10:04:40 AM 42.4378 -113.8344 119° Southeast 424 488 29,000  Level Salt Lake Center
Tue 10:05:42 AM 42.3797 -113.6950 119° Southeast 425 489 29,000  Level Salt Lake Center
Tue 10:07:00 AM 42.3133 -113.5375 120° Southeast  Level FlightAware Approximate
Tue 10:07:45 AM 42.2361 -113.4067 120° Southeast 425 489 29,000  Level Salt Lake Center
Tue 10:08:46 AM 42.1514 -113.2947 136° Southeast 428 493 29,000  Level Salt Lake Center
Tue 10:09:48 AM 42.0658 -113.1842 136° Southeast 428 493 29,000  Level Salt Lake Center
Tue 10:10:50 AM 41.9819 -113.0708 135° Southeast 428 493 29,000 -1,073 Level Salt Lake Center
Tue 10:11:51 AM 41.8961 -112.9611 136° Southeast 429 494 26,800 -2,537 Descending Salt Lake Center
Tue 10:12:53 AM 41.8114 -112.8506 136° Southeast 426 490 23,800 -3,242 Descending Salt Lake Center
Tue 10:13:55 AM 41.7114 -112.7192 136° Southeast 420 483 20,100 -3,211 Descending Salt Lake Center
Tue 10:14:47 AM 41.6475 -112.6275 133° Southeast 411 473 17,700 -2,336 Descending Salt Lake Center
Tue 10:15:48 AM 41.5653 -112.5233 137° Southeast 377 434 15,700 -1,263 Descending Salt Lake Center
Tue 10:17:00 AM 41.4881 -112.4508 145° Southeast 297 342 14,900 -902 Descending Salt Lake Center
Tue 10:18:01 AM 41.4281 -112.3775 137° Southeast 295 339 13,700 -1,309 Descending Salt Lake Center
Tue 10:18:50 AM 41.3758 -112.3069 135° Southeast 298 343 12,500 -1,266 Descending Salt Lake Center
Tue 10:19:50 AM 41.3175 -112.2381 138° Southeast 281 323 11,400 -960 Descending Salt Lake Center
Tue 10:20:05 AM 41.3097 -112.2353 165° South 276 318 11,300 -984 Descending Salt Lake Center
Tue 10:20:51 AM 41.2653 -112.1789 136° Southeast 251 289 10,400 -1,180 Descending Salt Lake Center
Tue 10:21:06 AM 41.2494 -112.1631 143° Southeast 245 282 10,100 -393 Descending Salt Lake Center
Tue 10:21:52 AM 41.2175 -112.1211 135° Southeast 237 273 10,000 -97 Descending Salt Lake Center
Tue 10:22:08 AM 41.2022 -112.1069 145° Southeast 230 265 10,000  Level Salt Lake Center
Tue 10:22:53 AM 41.1681 -112.0667 138° Southeast 217 250 10,000  Level Salt Lake Center
Tue 10:23:10 AM 41.1569 -112.0542 140° Southeast 219 252 10,000 -500 Level Salt Lake Center
Tue 10:23:53 AM 41.1142 -112.0336 160° South 217 250 9,500 -677 Descending Salt Lake Center
Tue 10:24:12 AM 41.1011 -112.0314 173° South 221 254 9,300 -492 Descending Salt Lake Center
Tue 10:24:54 AM 41.0550 -112.0281 177° South 213 245 9,000 -295 Descending Salt Lake Center
Tue 10:25:13 AM 41.0447 -112.0269 175° South 207 238 9,000 -492 Level Salt Lake Center
Tue 10:25:55 AM 41.0044 -112.0228 176° South 183 211 8,500 -677 Descending Salt Lake Center
Tue 10:26:15 AM 40.9961 -112.0214 173° South 178 205 8,300 -896 Descending Salt Lake Center
Tue 10:27:02 AM 40.9558 -112.0164 175° South 167 192 7,500 -1,161 Descending Salt Lake Center
Tue 10:27:17 AM 40.9419 -112.0156 177° South 164 189 7,100 -1,200 Descending Salt Lake Center
Tue 10:27:57 AM 40.9144 -112.0136 177° South 158 182 6,400 -1,050 Descending Salt Lake Center

Login

Don't have an account? Register now (free) for customized features, flight alerts, and more!